Time;durP1;ratioP1;P1;durP2;ratioP2;P2;SDS_P1;SDS_P2;PMS_P1;PMS_P2;Temp;Humidity;BMP_temperature;BMP_pressure;BME280_temperature;BME280_humidity;BME280_pressure;Samples;Min_cycle;Max_cycle;Signal;HPM_P1;HPM_P2
2022/01/16 00:02:10;;;;;;;50.17;24.17;;;1.40;99.90;;;;;;5032827;28;20205;-75
2022/01/16 00:04:37;;;;;;;56.75;23.10;;;1.30;99.90;;;;;;5030011;28;20235;-76
2022/01/16 00:07:06;;;;;;;44.35;21.85;;;1.40;99.90;;;;;;5020525;28;20227;-75
2022/01/16 00:09:34;;;;;;;50.75;21.60;;;1.40;99.90;;;;;;5015946;28;20247;-75
2022/01/16 00:12:04;;;;;;;57.45;23.45;;;1.30;99.90;;;;;;5016626;28;20218;-74
2022/01/16 00:14:31;;;;;;;48.47;22.25;;;1.30;99.90;;;;;;5016968;28;20223;-75
2022/01/16 00:16:58;;;;;;;46.33;21.75;;;1.30;99.90;;;;;;5015701;28;20204;-74
2022/01/16 00:19:26;;;;;;;48.30;23.08;;;1.30;99.90;;;;;;5014783;28;20727;-75
2022/01/16 00:21:54;;;;;;;57.15;23.08;;;1.30;99.90;;;;;;5014986;28;20203;-74
2022/01/16 00:24:21;;;;;;;49.80;22.60;;;1.30;99.90;;;;;;5015535;28;20282;-74
2022/01/16 00:26:48;;;;;;;49.83;23.40;;;1.30;99.90;;;;;;5018851;28;20200;-74
2022/01/16 00:29:15;;;;;;;47.75;22.50;;;1.30;99.90;;;;;;5020145;28;20267;-74
2022/01/16 00:31:42;;;;;;;47.03;23.30;;;1.20;99.90;;;;;;5019500;28;20651;-73
2022/01/16 00:34:11;;;;;;;49.22;23.17;;;1.20;99.90;;;;;;5015494;28;20310;-73
2022/01/16 00:36:38;;;;;;;41.78;21.10;;;1.20;99.90;;;;;;5015356;28;20232;-74
2022/01/16 00:39:07;;;;;;;48.85;20.92;;;1.10;99.90;;;;;;5014378;28;20254;-74
2022/01/16 00:41:35;;;;;;;45.65;22.63;;;1.10;99.90;;;;;;5014745;28;20217;-74
2022/01/16 00:44:02;;;;;;;43.00;21.40;;;1.10;99.90;;;;;;5014821;28;20207;-74
2022/01/16 00:46:28;;;;;;;42.85;20.77;;;1.00;99.90;;;;;;5014405;28;20204;-74
2022/01/16 00:48:55;;;;;;;57.53;22.85;;;1.10;99.90;;;;;;5014219;28;20294;-74
2022/01/16 00:51:23;;;;;;;48.22;20.67;;;1.00;99.90;;;;;;5014201;28;20295;-73
2022/01/16 00:53:50;;;;;;;48.53;22.80;;;1.00;99.90;;;;;;5014663;28;20235;-75
2022/01/16 00:56:18;;;;;;;57.95;22.85;;;1.00;99.90;;;;;;5014671;28;20231;-74
2022/01/16 00:58:45;;;;;;;41.47;20.23;;;1.00;99.90;;;;;;5015055;28;20204;-74
2022/01/16 01:01:12;;;;;;;46.13;21.17;;;1.00;99.90;;;;;;5013998;28;20208;-74
2022/01/16 01:03:39;;;;;;;43.75;20.15;;;1.10;99.90;;;;;;5014811;28;20207;-75
2022/01/16 01:06:06;;;;;;;50.55;20.10;;;1.00;99.90;;;;;;5017008;28;20196;-74
2022/01/16 01:08:33;;;;;;;43.47;20.02;;;1.00;99.90;;;;;;5020004;28;20207;-73
2022/01/16 01:11:04;;;;;;;44.35;21.40;;;1.00;99.90;;;;;;5016539;28;20271;-74
2022/01/16 01:13:43;;;;;;;45.72;20.60;;;1.00;99.90;;;;;;5020499;28;20204;-75
2022/01/16 01:16:15;;;;;;;41.05;19.67;;;1.00;99.90;;;;;;5014577;28;20223;-74
2022/01/16 01:18:43;;;;;;;48.25;19.80;;;1.00;99.90;;;;;;5014952;28;20668;-74
2022/01/16 01:21:23;;;;;;;52.58;21.05;;;1.00;99.90;;;;;;5013533;28;20278;-75
2022/01/16 01:23:50;;;;;;;42.65;20.05;;;1.00;99.90;;;;;;5013342;28;20214;-74
2022/01/16 01:26:17;;;;;;;43.13;20.48;;;0.90;99.90;;;;;;5013458;28;20299;-73
2022/01/16 01:28:46;;;;;;;41.53;19.85;;;0.90;99.90;;;;;;5013254;28;20615;-75
2022/01/16 01:31:13;;;;;;;41.05;19.15;;;0.80;99.90;;;;;;5013523;28;20211;-75
2022/01/16 01:33:39;;;;;;;47.28;19.40;;;0.90;99.90;;;;;;5013962;28;20234;-75
2022/01/16 01:36:06;;;;;;;43.65;18.80;;;0.80;99.90;;;;;;5018882;28;20227;-74
2022/01/16 01:38:33;;;;;;;44.58;20.05;;;0.80;99.90;;;;;;5022132;28;20204;-74
2022/01/16 01:41:00;;;;;;;47.28;18.00;;;0.80;99.90;;;;;;5025077;28;20231;-74
2022/01/16 01:51:57;;;;;;;45.85;20.33;;;0.60;99.90;;;;;;4973764;28;20205;-76
2022/01/16 01:54:24;;;;;;;55.03;21.15;;;0.60;99.90;;;;;;4973426;28;20197;-74
2022/01/16 01:56:52;;;;;;;50.40;19.02;;;0.60;99.90;;;;;;4987110;28;20211;-74
2022/01/16 01:59:19;;;;;;;45.03;17.77;;;0.50;99.90;;;;;;5017701;28;20242;-74
2022/01/16 02:01:48;;;;;;;43.05;18.20;;;0.50;99.90;;;;;;5015031;28;20299;-74
2022/01/16 02:04:14;;;;;;;44.97;18.13;;;0.60;99.90;;;;;;5017498;28;20207;-75
2022/01/16 02:06:42;;;;;;;44.83;19.00;;;0.50;99.90;;;;;;5020587;28;20279;-74
2022/01/16 02:09:10;;;;;;;36.72;17.55;;;0.50;99.90;;;;;;5015270;28;20251;-75
2022/01/16 02:11:37;;;;;;;44.33;19.05;;;0.40;99.90;;;;;;5013068;28;20570;-75
2022/01/16 02:14:11;;;;;;;42.80;18.50;;;0.50;99.90;;;;;;5012646;28;20299;-73
2022/01/16 02:28:02;;;;;;;34.22;15.88;;;0.40;99.90;;;;;;4997620;28;20637;-75
2022/01/16 02:36:18;;;;;;;36.80;15.13;;;0.30;99.90;;;;;;5016363;28;20447;-75
2022/01/16 02:38:47;;;;;;;39.95;17.90;;;0.30;99.90;;;;;;5022606;28;20233;-75
2022/01/16 02:41:15;;;;;;;38.08;18.75;;;0.30;99.90;;;;;;5021600;28;20211;-74
2022/01/16 02:43:47;;;;;;;39.22;16.60;;;0.30;99.90;;;;;;5015334;28;20214;-73
2022/01/16 02:48:58;;;;;;;42.58;17.73;;;0.10;99.90;;;;;;5017513;28;20717;-75
2022/01/16 02:51:28;;;;;;;34.55;16.70;;;0.10;99.90;;;;;;5017664;28;20204;-74
2022/01/16 02:53:57;;;;;;;31.95;15.90;;;0.10;99.90;;;;;;5016191;28;20200;-74
2022/01/16 02:56:24;;;;;;;35.00;15.55;;;0.00;99.90;;;;;;5014782;28;20231;-75
2022/01/16 02:58:52;;;;;;;33.83;16.88;;;0.00;99.90;;;;;;5014466;28;20305;-75
2022/01/16 03:01:20;;;;;;;35.58;15.98;;;0.00;99.90;;;;;;5013948;28;20215;-73
2022/01/16 03:03:47;;;;;;;35.85;17.92;;;-0.10;99.90;;;;;;5014556;28;20291;-74
2022/01/16 03:06:14;;;;;;;38.92;16.55;;;-0.10;99.90;;;;;;5013874;28;20200;-74
2022/01/16 03:11:27;;;;;;;38.55;17.05;;;-0.20;99.90;;;;;;5080670;22;20289;-77
2022/01/16 03:13:54;;;;;;;37.35;16.55;;;-0.20;99.90;;;;;;5048523;28;20191;-77
2022/01/16 03:16:23;;;;;;;40.22;15.77;;;-0.20;99.90;;;;;;5044628;28;20251;-77
2022/01/16 03:24:19;;;;;;;40.25;16.60;;;-0.30;99.90;;;;;;5040203;28;20202;-77
2022/01/16 03:26:47;;;;;;;39.08;17.23;;;-0.20;99.90;;;;;;5038900;28;20207;-77
2022/01/16 03:29:14;;;;;;;45.15;18.70;;;-0.30;99.90;;;;;;5038610;28;20234;-75
2022/01/16 03:31:41;;;;;;;37.95;17.25;;;-0.30;99.90;;;;;;5042357;28;20234;-78
2022/01/16 03:34:08;;;;;;;43.92;18.98;;;-0.30;99.90;;;;;;5048776;28;20203;-77
2022/01/16 03:36:35;;;;;;;40.45;16.27;;;-0.40;99.90;;;;;;5049878;28;20290;-78
2022/01/16 03:39:02;;;;;;;43.28;18.02;;;-0.40;99.90;;;;;;5046708;28;20199;-77
2022/01/16 03:41:30;;;;;;;35.88;18.05;;;-0.40;99.90;;;;;;5048211;28;20215;-78
2022/01/16 03:44:01;;;;;;;47.35;18.85;;;-0.30;99.90;;;;;;5047544;28;20203;-78
2022/01/16 03:46:34;;;;;;;49.75;18.55;;;-0.40;99.90;;;;;;5046008;28;20278;-77
2022/01/16 03:49:01;;;;;;;44.35;18.50;;;-0.40;99.90;;;;;;5059183;28;20199;-77
2022/01/16 03:51:28;;;;;;;46.08;18.60;;;-0.40;99.90;;;;;;5059697;28;20223;-77
2022/01/16 03:53:55;;;;;;;41.80;19.45;;;-0.50;99.90;;;;;;5040322;28;20230;-77
2022/01/16 03:56:22;;;;;;;46.15;18.85;;;-0.50;99.90;;;;;;5042026;28;20229;-77
2022/01/16 03:58:49;;;;;;;39.80;17.85;;;-0.50;99.90;;;;;;5047529;28;20219;-77
2022/01/16 04:01:17;;;;;;;48.35;20.33;;;-0.50;99.90;;;;;;5040077;28;20225;-77
2022/01/16 04:03:44;;;;;;;42.30;18.58;;;-0.50;99.90;;;;;;5049286;28;20207;-77
2022/01/16 04:06:11;;;;;;;47.78;21.35;;;-0.50;99.90;;;;;;5049235;28;20217;-76
2022/01/16 04:08:38;;;;;;;46.72;19.52;;;-0.50;99.90;;;;;;5044249;28;20203;-76
2022/01/16 04:11:05;;;;;;;42.30;18.77;;;-0.50;99.90;;;;;;5048637;28;20218;-75
2022/01/16 04:13:32;;;;;;;55.35;20.23;;;-0.50;99.90;;;;;;5058518;28;20195;-76
2022/01/16 04:15:59;;;;;;;48.85;19.30;;;-0.50;99.90;;;;;;5057634;28;20235;-77
2022/01/16 04:18:28;;;;;;;42.78;18.33;;;-0.40;99.90;;;;;;5056224;28;20262;-77
2022/01/16 04:20:54;;;;;;;43.28;18.17;;;-0.50;99.90;;;;;;5042460;28;20628;-77
2022/01/16 04:23:21;;;;;;;40.08;18.08;;;-0.50;99.90;;;;;;5039054;28;20211;-78
2022/01/16 04:25:48;;;;;;;46.15;17.75;;;-0.50;99.90;;;;;;5038067;28;20211;-77
2022/01/16 04:28:15;;;;;;;45.25;18.77;;;-0.50;99.90;;;;;;5038361;28;20322;-76
2022/01/16 04:30:44;;;;;;;48.58;19.63;;;-0.50;99.90;;;;;;5037493;28;20227;-76
2022/01/16 04:33:11;;;;;;;40.90;17.38;;;-0.50;99.90;;;;;;5038844;28;20723;-76
2022/01/16 04:35:40;;;;;;;42.15;17.83;;;-0.50;99.90;;;;;;5038656;28;20282;-77
2022/01/16 04:38:06;;;;;;;48.47;19.33;;;-0.40;99.90;;;;;;5038446;28;20203;-76
2022/01/16 04:40:42;;;;;;;41.30;16.48;;;-0.40;99.90;;;;;;5038025;28;20314;-77
2022/01/16 04:45:57;;;;;;;40.15;17.30;;;-0.40;99.90;;;;;;5038716;28;20263;-78
2022/01/16 04:48:24;;;;;;;47.97;19.55;;;-0.40;99.90;;;;;;5037607;28;20214;-77
2022/01/16 04:50:52;;;;;;;44.83;19.58;;;-0.40;99.90;;;;;;5038935;28;20238;-78
2022/01/16 04:53:19;;;;;;;49.53;19.30;;;-0.30;99.90;;;;;;5044969;28;20774;-77
2022/01/16 04:55:49;;;;;;;42.55;18.02;;;-0.30;99.90;;;;;;5044538;28;20317;-77
2022/01/16 04:58:18;;;;;;;44.80;18.35;;;-0.30;99.90;;;;;;5043600;28;20214;-78
2022/01/16 05:00:45;;;;;;;46.42;18.80;;;-0.30;99.90;;;;;;5038289;28;20235;-77
2022/01/16 05:03:11;;;;;;;46.63;17.33;;;-0.30;99.90;;;;;;5041605;28;20207;-77
2022/01/16 05:05:38;;;;;;;46.55;19.02;;;-0.40;99.90;;;;;;5045639;28;20207;-77
2022/01/16 05:08:07;;;;;;;41.20;17.90;;;-0.30;99.90;;;;;;5046278;28;20218;-77
2022/01/16 05:10:33;;;;;;;42.03;18.90;;;-0.30;99.90;;;;;;5041650;28;20234;-78
2022/01/16 05:13:26;;;;;;;44.13;17.73;;;-0.30;99.90;;;;;;5047137;28;20219;-77
2022/01/16 05:18:32;;;;;;;41.67;17.73;;;-0.30;99.90;;;;;;5027792;28;20238;-77
2022/01/16 05:20:59;;;;;;;38.55;16.52;;;-0.40;99.90;;;;;;5024124;28;20228;-77
2022/01/16 05:23:28;;;;;;;45.55;17.83;;;-0.40;99.90;;;;;;5046989;28;20253;-78
2022/01/16 05:25:55;;;;;;;32.08;15.70;;;-0.40;99.90;;;;;;5049624;28;20207;-76
2022/01/16 05:28:23;;;;;;;38.65;16.45;;;-0.40;99.90;;;;;;5051017;28;20306;-77
2022/01/16 05:30:50;;;;;;;41.20;17.08;;;-0.40;99.90;;;;;;5048298;28;20254;-76
2022/01/16 05:33:17;;;;;;;40.17;16.40;;;-0.40;99.90;;;;;;5037012;28;20298;-75
2022/01/16 05:35:44;;;;;;;45.08;17.15;;;-0.40;99.90;;;;;;5036277;28;20235;-77
2022/01/16 05:38:12;;;;;;;44.88;16.27;;;-0.40;99.90;;;;;;5036145;28;20213;-76
2022/01/16 05:40:41;;;;;;;40.28;17.38;;;-0.50;99.90;;;;;;5035906;28;20227;-76
2022/01/16 05:43:08;;;;;;;40.28;15.45;;;-0.50;99.90;;;;;;5035371;28;20199;-76
2022/01/16 05:45:35;;;;;;;31.88;15.70;;;-0.50;99.90;;;;;;5035574;28;20203;-75
2022/01/16 05:48:02;;;;;;;43.60;17.05;;;-0.50;99.90;;;;;;5036350;28;20203;-76
2022/01/16 05:50:31;;;;;;;38.05;16.10;;;-0.50;99.90;;;;;;5036784;28;20315;-76
2022/01/16 05:52:58;;;;;;;36.20;17.27;;;-0.60;99.90;;;;;;5036477;28;20206;-77
2022/01/16 05:55:27;;;;;;;34.22;16.48;;;-0.50;99.90;;;;;;5038022;28;20301;-76
2022/01/16 05:57:55;;;;;;;31.67;15.35;;;-0.50;99.90;;;;;;5040850;28;20215;-77
2022/01/16 06:00:22;;;;;;;31.17;16.15;;;-0.50;99.90;;;;;;5040626;28;20285;-76
2022/01/16 06:02:49;;;;;;;33.10;16.30;;;-0.60;99.90;;;;;;5040427;28;20284;-76
2022/01/16 06:05:16;;;;;;;38.72;16.77;;;-0.60;99.90;;;;;;5037377;28;20698;-76
2022/01/16 06:07:45;;;;;;;35.55;16.45;;;-0.60;99.90;;;;;;5036676;28;20956;-75
2022/01/16 06:10:13;;;;;;;39.20;17.65;;;-0.60;99.90;;;;;;5039730;28;20234;-77
2022/01/16 06:12:40;;;;;;;34.42;15.98;;;-0.60;99.90;;;;;;5041105;28;20366;-76
2022/01/16 06:15:08;;;;;;;33.30;16.15;;;-0.60;99.90;;;;;;5038457;28;20218;-77
2022/01/16 06:17:35;;;;;;;39.03;16.63;;;-0.60;99.90;;;;;;5037743;28;22334;-76
2022/01/16 06:20:02;;;;;;;39.60;17.65;;;-0.60;99.90;;;;;;5037673;28;20727;-77
2022/01/16 06:22:29;;;;;;;32.13;16.30;;;-0.50;99.90;;;;;;5039398;28;20199;-78
2022/01/16 06:24:56;;;;;;;31.08;14.93;;;-0.50;99.90;;;;;;5048594;28;20205;-75
2022/01/16 06:27:23;;;;;;;35.63;16.63;;;-0.50;99.90;;;;;;5054079;28;20191;-77
2022/01/16 06:29:50;;;;;;;29.40;14.65;;;-0.50;99.90;;;;;;5037827;28;20222;-75
2022/01/16 06:32:18;;;;;;;32.55;15.00;;;-0.40;99.90;;;;;;5035551;28;20207;-76
2022/01/16 06:34:45;;;;;;;32.67;16.08;;;-0.40;99.90;;;;;;5034674;28;20293;-76
2022/01/16 06:37:12;;;;;;;30.73;15.55;;;-0.50;99.90;;;;;;5035176;28;20310;-76
2022/01/16 06:39:39;;;;;;;38.08;17.00;;;-0.50;99.90;;;;;;5040693;28;20314;-78
2022/01/16 06:42:06;;;;;;;27.27;15.20;;;-0.50;99.90;;;;;;5041812;28;20238;-79
2022/01/16 06:44:33;;;;;;;34.60;16.23;;;-0.50;99.90;;;;;;5040109;28;20279;-77
2022/01/16 06:47:00;;;;;;;29.20;15.88;;;-0.50;99.90;;;;;;5036248;28;20204;-76
2022/01/16 06:49:28;;;;;;;26.27;13.63;;;-0.40;99.90;;;;;;5035592;28;20223;-76
2022/01/16 06:51:55;;;;;;;36.17;17.30;;;-0.40;99.90;;;;;;5035205;28;20199;-77
2022/01/16 06:54:22;;;;;;;30.00;15.10;;;-0.50;99.90;;;;;;5037864;28;20206;-78
2022/01/16 06:56:49;;;;;;;26.90;12.88;;;-0.50;99.90;;;;;;5042030;28;20219;-77
2022/01/16 06:59:16;;;;;;;26.80;15.00;;;-0.40;99.90;;;;;;5049250;28;20250;-76
2022/01/16 07:01:44;;;;;;;35.83;15.95;;;-0.50;99.40;;;;;;5046043;28;20214;-76
2022/01/16 07:04:11;;;;;;;35.45;18.15;;;-0.40;99.50;;;;;;5049706;28;20203;-76
2022/01/16 07:06:39;;;;;;;34.63;15.32;;;-0.40;99.20;;;;;;5051291;28;20203;-75
2022/01/16 07:09:06;;;;;;;36.22;17.48;;;-0.40;99.20;;;;;;5042377;28;20246;-76
2022/01/16 07:11:33;;;;;;;34.00;17.25;;;-0.40;98.50;;;;;;5056012;28;20277;-75
2022/01/16 07:14:00;;;;;;;34.35;16.77;;;-0.40;98.70;;;;;;5053757;28;20302;-78
2022/01/16 07:16:27;;;;;;;34.80;15.55;;;-0.40;98.30;;;;;;5041364;28;20234;-77
2022/01/16 07:18:54;;;;;;;33.88;17.75;;;-0.40;98.30;;;;;;5041853;28;20659;-78
2022/01/16 07:21:21;;;;;;;33.13;15.40;;;-0.30;98.30;;;;;;5040648;28;20199;-76
2022/01/16 07:23:49;;;;;;;34.80;17.73;;;-0.30;98.30;;;;;;5044353;28;20264;-77
2022/01/16 07:26:16;;;;;;;38.08;17.73;;;-0.30;98.30;;;;;;5039441;28;20302;-77
2022/01/16 07:28:43;;;;;;;43.10;17.38;;;-0.30;98.20;;;;;;5039039;28;20210;-76
2022/01/16 07:31:10;;;;;;;40.10;17.05;;;-0.40;98.20;;;;;;5040603;28;20234;-77
2022/01/16 07:33:37;;;;;;;34.45;17.50;;;-0.30;98.30;;;;;;5043002;28;20218;-76
2022/01/16 07:36:05;;;;;;;35.70;18.52;;;-0.30;98.30;;;;;;5038378;28;20207;-76
2022/01/16 07:38:32;;;;;;;36.85;18.33;;;-0.30;98.30;;;;;;5038115;28;20674;-75
2022/01/16 07:41:00;;;;;;;34.13;17.55;;;-0.30;98.80;;;;;;5038325;28;20223;-76
2022/01/16 07:43:27;;;;;;;39.92;20.73;;;-0.30;98.70;;;;;;5039221;28;20211;-77
2022/01/16 07:45:54;;;;;;;36.38;19.90;;;-0.20;99.00;;;;;;5038856;28;20275;-78
2022/01/16 07:48:21;;;;;;;39.70;19.25;;;-0.20;99.40;;;;;;5041758;28;20290;-77
2022/01/16 07:50:48;;;;;;;48.45;20.75;;;-0.10;99.60;;;;;;5054238;28;20227;-78
2022/01/16 07:53:15;;;;;;;45.10;18.65;;;-0.10;99.70;;;;;;5054864;28;20207;-78
2022/01/16 07:55:42;;;;;;;40.65;17.38;;;0.00;99.80;;;;;;5052751;28;20215;-75
2022/01/16 07:58:10;;;;;;;38.70;18.70;;;0.00;99.80;;;;;;5052137;28;20219;-76
2022/01/16 08:00:37;;;;;;;42.55;18.92;;;0.00;99.90;;;;;;5045423;28;20242;-77
2022/01/16 08:03:04;;;;;;;35.42;19.23;;;0.10;99.50;;;;;;5041071;28;20203;-77
2022/01/16 08:05:34;;;;;;;38.40;18.52;;;0.10;99.80;;;;;;5043019;28;20265;-78
2022/01/16 08:08:00;;;;;;;39.10;19.45;;;0.10;99.70;;;;;;5045144;28;20213;-76
2022/01/16 08:10:29;;;;;;;55.45;19.40;;;0.10;99.90;;;;;;5056034;28;20298;-78
2022/01/16 08:12:58;;;;;;;41.67;18.98;;;0.20;99.90;;;;;;5057325;28;20203;-77
2022/01/16 08:15:27;;;;;;;41.95;19.73;;;0.20;99.90;;;;;;5058450;28;20203;-75
2022/01/16 08:17:53;;;;;;;43.95;18.75;;;0.20;99.90;;;;;;5056062;28;20234;-78
2022/01/16 08:20:20;;;;;;;39.58;19.55;;;0.30;99.90;;;;;;5042479;28;20227;-78
2022/01/16 08:22:47;;;;;;;40.53;21.02;;;0.30;99.90;;;;;;5041559;28;20674;-76
2022/01/16 08:25:15;;;;;;;49.78;20.88;;;0.30;99.90;;;;;;5047341;28;20266;-77
2022/01/16 08:27:42;;;;;;;41.75;21.02;;;0.40;99.90;;;;;;5046451;28;20214;-78
2022/01/16 08:30:11;;;;;;;50.05;22.95;;;0.30;99.90;;;;;;5044693;28;20226;-78
2022/01/16 08:32:43;;;;;;;43.83;21.88;;;0.30;99.90;;;;;;5045186;28;20211;-76
2022/01/16 08:35:11;;;;;;;55.25;22.33;;;0.30;99.90;;;;;;5045305;28;20663;-77
2022/01/16 08:37:38;;;;;;;46.95;21.08;;;0.40;99.90;;;;;;5042666;28;20222;-79
2022/01/16 08:40:06;;;;;;;41.42;20.55;;;0.40;99.90;;;;;;5042924;28;20273;-79
2022/01/16 08:42:35;;;;;;;41.05;21.42;;;0.40;99.90;;;;;;5042768;28;20218;-77
2022/01/16 08:45:02;;;;;;;42.50;21.65;;;0.50;99.90;;;;;;5043472;28;20245;-79
2022/01/16 08:47:30;;;;;;;40.38;20.33;;;0.50;99.90;;;;;;5044942;28;20269;-78
2022/01/16 08:50:02;;;;;;;52.70;22.08;;;0.50;99.90;;;;;;5043570;28;20253;-78
2022/01/16 08:52:29;;;;;;;45.83;21.33;;;0.60;99.90;;;;;;5045391;28;20238;-79
2022/01/16 08:54:56;;;;;;;41.95;22.17;;;0.60;99.90;;;;;;5047157;28;20206;-77
2022/01/16 08:57:23;;;;;;;40.42;21.25;;;0.60;99.90;;;;;;5046197;28;20366;-78
2022/01/16 08:59:50;;;;;;;46.92;24.88;;;0.60;99.90;;;;;;5045437;28;20227;-79
2022/01/16 09:02:17;;;;;;;49.05;22.30;;;0.60;99.90;;;;;;5042134;28;20588;-78
2022/01/16 09:04:43;;;;;;;45.35;22.77;;;0.60;99.90;;;;;;5042166;28;20306;-79
2022/01/16 09:07:12;;;;;;;46.35;23.52;;;0.60;99.90;;;;;;5041387;28;20261;-79
2022/01/16 09:09:39;;;;;;;47.67;22.83;;;0.60;99.90;;;;;;5055782;22;20230;-76
2022/01/16 09:12:07;;;;;;;45.63;24.17;;;0.70;99.90;;;;;;5062775;28;20226;-76
2022/01/16 09:14:34;;;;;;;44.42;23.15;;;0.70;99.20;;;;;;5064947;28;20696;-74
2022/01/16 09:17:00;;;;;;;43.40;23.60;;;0.80;98.70;;;;;;5066998;28;20233;-74
2022/01/16 09:19:29;;;;;;;56.10;23.58;;;0.80;98.50;;;;;;5063971;28;20325;-76
2022/01/16 09:21:56;;;;;;;39.50;22.45;;;0.80;98.00;;;;;;5063696;28;20217;-76
2022/01/16 09:24:24;;;;;;;50.35;25.55;;;0.80;97.00;;;;;;5064171;28;20471;-75
2022/01/16 09:26:54;;;;;;;43.83;23.35;;;0.90;97.00;;;;;;5066095;28;20551;-76
2022/01/16 09:29:21;;;;;;;47.92;25.42;;;0.90;96.20;;;;;;5065678;28;20214;-74
2022/01/16 09:31:48;;;;;;;43.85;23.60;;;1.00;95.70;;;;;;5059876;28;20216;-75
2022/01/16 09:34:15;;;;;;;42.13;24.42;;;0.90;95.30;;;;;;5058707;28;20214;-75
2022/01/16 09:36:42;;;;;;;41.30;22.58;;;1.00;95.20;;;;;;5058542;28;20289;-75
2022/01/16 09:39:09;;;;;;;41.30;22.00;;;1.00;94.30;;;;;;5059892;28;20237;-76
2022/01/16 09:41:37;;;;;;;50.35;24.83;;;1.10;93.90;;;;;;5059724;28;20202;-78
2022/01/16 09:44:05;;;;;;;44.05;22.70;;;1.10;93.70;;;;;;5060471;28;20210;-77
2022/01/16 09:46:32;;;;;;;43.72;24.13;;;1.20;93.60;;;;;;5058411;28;20234;-75
2022/01/16 09:48:59;;;;;;;44.28;24.50;;;1.20;92.20;;;;;;5059561;28;20289;-74
2022/01/16 09:51:26;;;;;;;46.92;25.45;;;1.30;92.00;;;;;;5061669;28;20222;-75
2022/01/16 09:53:52;;;;;;;40.88;22.67;;;1.30;91.50;;;;;;5061962;28;20241;-77
2022/01/16 09:56:19;;;;;;;48.35;24.92;;;1.40;91.00;;;;;;5061848;28;20202;-76
2022/01/16 09:58:48;;;;;;;46.88;24.40;;;1.40;90.20;;;;;;5060221;28;20720;-75
2022/01/16 10:01:14;;;;;;;46.53;24.35;;;1.40;90.20;;;;;;5057119;28;20234;-75
2022/01/16 10:03:43;;;;;;;38.40;22.38;;;1.30;90.00;;;;;;5058547;28;20229;-75
2022/01/16 10:06:13;;;;;;;39.50;22.33;;;1.30;90.20;;;;;;5070691;28;20267;-75
2022/01/16 10:08:41;;;;;;;41.35;22.90;;;1.40;90.20;;;;;;5070299;28;20241;-75
2022/01/16 10:11:31;;;;;;;44.55;24.15;;;1.30;90.20;;;;;;5065388;28;20222;-78
2022/01/16 10:14:02;;;;;;;48.72;24.77;;;1.30;90.20;;;;;;5057289;28;20221;-76
2022/01/16 10:16:31;;;;;;;48.50;27.25;;;1.30;90.90;;;;;;5059629;28;20206;-76
2022/01/16 10:18:58;;;;;;;45.15;25.52;;;1.30;91.00;;;;;;5064344;28;20222;-74
2022/01/16 10:21:37;;;;;;;48.53;27.85;;;1.40;91.60;;;;;;5058604;28;20603;-74
2022/01/16 10:24:22;;;;;;;51.20;26.65;;;1.50;91.90;;;;;;5052432;28;20203;-75
2022/01/16 10:26:51;;;;;;;55.38;24.95;;;1.60;92.10;;;;;;5055215;28;20505;-77
2022/01/16 10:29:22;;;;;;;50.72;26.08;;;1.70;92.10;;;;;;5057662;28;20328;-76
2022/01/16 10:31:50;;;;;;;50.50;25.75;;;1.70;92.10;;;;;;5056302;28;20305;-76
2022/01/16 10:34:26;;;;;;;46.53;24.05;;;1.80;92.20;;;;;;5055817;28;20233;-77
2022/01/16 10:36:54;;;;;;;47.28;26.05;;;1.80;91.90;;;;;;5057063;28;20202;-75
2022/01/16 10:39:20;;;;;;;57.85;27.42;;;1.80;92.10;;;;;;5062286;28;20203;-75
2022/01/16 10:42:17;;;;;;;61.67;29.42;;;1.80;92.10;;;;;;5057702;28;20226;-78
2022/01/16 10:44:44;;;;;;;53.28;25.90;;;1.80;92.00;;;;;;5071027;28;20225;-75
2022/01/16 10:47:34;;;;;;;50.92;25.33;;;1.80;92.30;;;;;;5059384;28;20198;-75
2022/01/16 10:50:17;;;;;;;58.20;28.05;;;1.80;92.80;;;;;;5047914;28;20218;-76
2022/01/16 10:52:50;;;;;;;54.25;25.80;;;1.80;93.20;;;;;;5058121;28;20652;-76
2022/01/16 10:55:17;;;;;;;51.22;24.15;;;1.80;93.50;;;;;;5055400;28;20296;-76
2022/01/16 10:57:46;;;;;;;54.25;24.85;;;1.90;93.40;;;;;;5057446;28;20258;-76
2022/01/16 11:00:17;;;;;;;48.47;24.55;;;1.90;93.40;;;;;;5056446;28;20222;-77
2022/01/16 11:02:46;;;;;;;46.42;24.60;;;1.90;93.30;;;;;;5057130;28;20249;-76
2022/01/16 11:05:14;;;;;;;53.20;26.55;;;2.00;93.00;;;;;;5056709;28;20286;-77
2022/01/16 11:07:42;;;;;;;56.33;27.80;;;2.00;92.60;;;;;;5056734;28;20643;-76
2022/01/16 11:10:28;;;;;;;51.67;25.08;;;2.10;92.40;;;;;;5056711;28;20709;-75
2022/01/16 11:12:59;;;;;;;46.17;24.15;;;2.20;92.20;;;;;;5057441;28;20206;-77
2022/01/16 11:15:26;;;;;;;46.50;23.88;;;2.30;91.80;;;;;;5056272;28;20209;-77
2022/01/16 11:17:54;;;;;;;43.70;24.67;;;2.40;91.10;;;;;;5056901;28;20223;-75
2022/01/16 11:20:27;;;;;;;46.05;20.67;;;2.50;90.10;;;;;;5055566;28;20254;-75
2022/01/16 11:23:00;;;;;;;50.38;24.00;;;2.60;88.70;;;;;;5059817;28;20207;-76
2022/01/16 11:25:33;;;;;;;48.25;24.58;;;2.70;87.70;;;;;;5063398;28;20191;-77
2022/01/16 11:28:11;;;;;;;51.58;24.50;;;2.80;86.10;;;;;;5064012;28;20221;-78
2022/01/16 11:30:40;;;;;;;43.55;22.60;;;3.00;83.90;;;;;;5067741;28;20237;-78
2022/01/16 11:33:08;;;;;;;37.20;21.70;;;3.20;82.90;;;;;;5068475;28;20668;-77
2022/01/16 11:35:42;;;;;;;44.92;23.52;;;3.30;79.90;;;;;;5066993;28;20207;-76
2022/01/16 11:38:09;;;;;;;38.65;22.95;;;3.40;77.50;;;;;;5068044;28;20214;-77
2022/01/16 11:40:48;;;;;;;46.10;23.85;;;3.30;76.30;;;;;;5070204;28;20230;-76
2022/01/16 11:43:25;;;;;;;42.05;19.70;;;3.30;76.80;;;;;;5074444;28;20212;-78
2022/01/16 11:46:04;;;;;;;39.63;22.73;;;3.30;75.20;;;;;;5074506;28;20202;-77
2022/01/16 11:48:40;;;;;;;38.45;21.38;;;3.40;74.90;;;;;;5073208;28;20278;-77
2022/01/16 11:51:28;;;;;;;40.08;21.65;;;3.40;74.60;;;;;;5072735;28;20226;-77
2022/01/16 11:54:06;;;;;;;38.55;19.60;;;3.40;73.40;;;;;;5074312;28;20285;-78
2022/01/16 11:56:53;;;;;;;38.45;20.83;;;3.50;73.10;;;;;;5074181;28;20244;-77
2022/01/16 11:59:24;;;;;;;40.75;21.27;;;3.50;71.80;;;;;;5071057;28;20232;-76
2022/01/16 12:01:53;;;;;;;33.80;18.58;;;3.60;72.10;;;;;;5072810;28;20213;-77
2022/01/16 12:04:48;;;;;;;47.45;21.33;;;3.60;71.80;;;;;;5070805;28;20198;-77
2022/01/16 12:07:58;;;;;;;40.92;20.85;;;3.50;71.70;;;;;;5071995;28;20199;-78
2022/01/16 12:10:54;;;;;;;39.90;19.58;;;3.50;71.70;;;;;;5071661;28;20257;-78
2022/01/16 12:13:53;;;;;;;41.25;21.45;;;3.50;71.70;;;;;;5073447;28;20211;-76
2022/01/16 12:16:47;;;;;;;40.42;22.55;;;3.50;72.70;;;;;;5054625;28;20635;-76
2022/01/16 12:19:33;;;;;;;43.03;22.13;;;3.60;72.20;;;;;;5055092;28;20242;-76
2022/01/16 12:22:01;;;;;;;40.70;21.00;;;3.60;71.80;;;;;;5055800;28;20230;-79
2022/01/16 12:24:36;;;;;;;39.95;20.48;;;3.50;71.70;;;;;;5055232;28;20233;-76
2022/01/16 12:27:54;;;;;;;37.97;20.85;;;3.50;71.70;;;;;;5054264;28;20222;-76
2022/01/16 12:30:39;;;;;;;35.80;19.60;;;3.40;71.60;;;;;;4973239;28;20634;-78
2022/01/16 12:33:21;;;;;;;41.95;21.88;;;3.30;73.00;;;;;;4977929;28;20205;-77
2022/01/16 12:36:18;;;;;;;42.80;22.30;;;3.30;73.50;;;;;;4991224;28;20269;-78
2022/01/16 12:39:05;;;;;;;42.33;21.35;;;3.30;73.60;;;;;;4990963;28;20221;-77
2022/01/16 12:41:40;;;;;;;40.65;21.63;;;3.30;74.00;;;;;;4987871;28;20225;-76
2022/01/16 12:44:10;;;;;;;43.08;22.73;;;3.30;74.30;;;;;;4987075;28;20264;-75
2022/01/16 12:46:40;;;;;;;43.83;23.08;;;3.20;74.40;;;;;;4985427;28;20263;-75
2022/01/16 12:49:12;;;;;;;38.35;22.38;;;3.20;74.80;;;;;;4982945;28;20212;-76
2022/01/16 12:51:41;;;;;;;39.65;23.70;;;3.20;75.00;;;;;;4981297;28;20209;-77
2022/01/16 12:54:10;;;;;;;45.85;23.88;;;3.30;75.20;;;;;;4980821;28;20236;-77
2022/01/16 12:56:40;;;;;;;46.80;23.95;;;3.30;74.60;;;;;;4985437;28;20209;-76
2022/01/16 12:59:12;;;;;;;42.20;22.73;;;3.40;74.80;;;;;;4988637;28;20233;-76
2022/01/16 13:01:45;;;;;;;41.30;23.48;;;3.50;74.20;;;;;;5057710;28;20209;-76
2022/01/16 13:04:33;;;;;;;37.95;21.70;;;3.40;73.00;;;;;;5073904;28;20234;-74
2022/01/16 13:07:02;;;;;;;38.72;22.38;;;3.40;73.80;;;;;;5075330;28;20183;-75
2022/01/16 13:09:31;;;;;;;40.08;22.73;;;3.40;74.30;;;;;;5070044;28;20690;-74
2022/01/16 13:12:00;;;;;;;38.30;21.13;;;3.30;74.50;;;;;;5066837;28;20265;-76
2022/01/16 13:14:32;;;;;;;39.97;23.25;;;3.30;74.70;;;;;;5067634;28;20198;-77
2022/01/16 13:17:00;;;;;;;33.13;21.60;;;3.30;75.00;;;;;;5068499;28;20213;-79
2022/01/16 13:19:37;;;;;;;40.20;22.58;;;3.20;75.30;;;;;;5084751;28;20244;-78
2022/01/16 13:22:11;;;;;;;43.88;24.40;;;3.10;76.00;;;;;;5064104;28;20218;-76
2022/01/16 13:24:44;;;;;;;43.28;23.38;;;3.20;77.00;;;;;;5063427;28;20237;-75
2022/01/16 13:27:14;;;;;;;43.78;22.52;;;3.20;76.70;;;;;;5052765;28;20670;-77
2022/01/16 13:29:43;;;;;;;41.03;21.42;;;3.10;76.90;;;;;;5060221;28;20218;-78